sensor_id;sensor_type;location;lat;lon;timestamp;pressure;altitude;pressure_sealevel;temperature;humidity
65013;BME280;51715;39.432;-77.518;2023-04-08T00:01:06;100765.33;;;14.75;22.75
65013;BME280;51715;39.432;-77.518;2023-04-08T00:03:34;100764.45;;;14.71;22.57
65013;BME280;51715;39.432;-77.518;2023-04-08T00:06:02;100761.36;;;14.65;22.45
65013;BME280;51715;39.432;-77.518;2023-04-08T00:08:31;100762.50;;;14.28;21.59
65013;BME280;51715;39.432;-77.518;2023-04-08T00:11:00;100772.76;;;14.35;24.05
65013;BME280;51715;39.432;-77.518;2023-04-08T00:13:29;100784.71;;;13.98;23.71
65013;BME280;51715;39.432;-77.518;2023-04-08T00:15:58;100783.95;;;14.25;24.07
65013;BME280;51715;39.432;-77.518;2023-04-08T00:18:27;100788.04;;;14.32;23.74
65013;BME280;51715;39.432;-77.518;2023-04-08T00:20:56;100791.29;;;14.11;23.00
65013;BME280;51715;39.432;-77.518;2023-04-08T00:23:24;100795.81;;;14.16;22.25
65013;BME280;51715;39.432;-77.518;2023-04-08T00:25:52;100797.04;;;14.36;23.42
65013;BME280;51715;39.432;-77.518;2023-04-08T00:28:20;100803.98;;;14.42;24.95
65013;BME280;51715;39.432;-77.518;2023-04-08T00:30:51;100804.35;;;14.45;24.07
65013;BME280;51715;39.432;-77.518;2023-04-08T00:33:20;100813.46;;;14.15;23.47
65013;BME280;51715;39.432;-77.518;2023-04-08T00:35:48;100818.75;;;14.02;25.24
65013;BME280;51715;39.432;-77.518;2023-04-08T00:38:18;100821.16;;;14.23;25.23
65013;BME280;51715;39.432;-77.518;2023-04-08T00:40:47;100829.23;;;14.26;25.18
65013;BME280;51715;39.432;-77.518;2023-04-08T00:43:16;100832.45;;;14.13;26.19
65013;BME280;51715;39.432;-77.518;2023-04-08T00:45:44;100842.17;;;13.77;25.62
65013;BME280;51715;39.432;-77.518;2023-04-08T00:48:14;100836.51;;;13.90;25.73
65013;BME280;51715;39.432;-77.518;2023-04-08T00:50:43;100832.11;;;13.58;24.84
65013;BME280;51715;39.432;-77.518;2023-04-08T00:53:11;100837.96;;;13.80;26.24
65013;BME280;51715;39.432;-77.518;2023-04-08T00:55:40;100843.48;;;13.59;25.32
65013;BME280;51715;39.432;-77.518;2023-04-08T00:58:08;100836.03;;;13.75;25.54
65013;BME280;51715;39.432;-77.518;2023-04-08T01:00:41;100837.88;;;13.53;26.10
65013;BME280;51715;39.432;-77.518;2023-04-08T01:03:15;100838.03;;;13.21;25.35
65013;BME280;51715;39.432;-77.518;2023-04-08T01:05:52;100841.48;;;13.17;26.36
65013;BME280;51715;39.432;-77.518;2023-04-08T01:08:23;100842.52;;;13.22;26.24
65013;BME280;51715;39.432;-77.518;2023-04-08T01:10:57;100843.59;;;13.43;26.14
65013;BME280;51715;39.432;-77.518;2023-04-08T01:13:29;100840.76;;;13.14;26.75
65013;BME280;51715;39.432;-77.518;2023-04-08T01:15:58;100854.74;;;13.08;26.76
65013;BME280;51715;39.432;-77.518;2023-04-08T01:18:28;100859.44;;;13.25;26.77
65013;BME280;51715;39.432;-77.518;2023-04-08T01:20:59;100854.52;;;13.10;25.94
65013;BME280;51715;39.432;-77.518;2023-04-08T01:23:36;100848.09;;;12.88;26.17
65013;BME280;51715;39.432;-77.518;2023-04-08T01:26:07;100858.55;;;12.96;26.21
65013;BME280;51715;39.432;-77.518;2023-04-08T01:28:39;100862.21;;;13.11;25.90
65013;BME280;51715;39.432;-77.518;2023-04-08T01:31:07;100862.10;;;12.94;26.13
65013;BME280;51715;39.432;-77.518;2023-04-08T01:33:36;100865.54;;;12.92;26.80
65013;BME280;51715;39.432;-77.518;2023-04-08T01:36:06;100868.40;;;13.12;26.62
65013;BME280;51715;39.432;-77.518;2023-04-08T01:38:37;100880.21;;;13.14;26.82
65013;BME280;51715;39.432;-77.518;2023-04-08T01:41:09;100877.43;;;13.19;26.98
65013;BME280;51715;39.432;-77.518;2023-04-08T01:43:40;100885.16;;;13.05;26.39
65013;BME280;51715;39.432;-77.518;2023-04-08T01:46:10;100890.23;;;13.15;26.07
65013;BME280;51715;39.432;-77.518;2023-04-08T01:48:39;100885.38;;;12.76;26.82
65013;BME280;51715;39.432;-77.518;2023-04-08T01:51:09;100877.94;;;13.27;27.77
65013;BME280;51715;39.432;-77.518;2023-04-08T01:53:39;100879.67;;;12.78;27.06
65013;BME280;51715;39.432;-77.518;2023-04-08T01:56:11;100884.75;;;12.99;26.98
65013;BME280;51715;39.432;-77.518;2023-04-08T01:58:41;100887.34;;;12.82;27.21
65013;BME280;51715;39.432;-77.518;2023-04-08T02:01:12;100906.59;;;12.86;27.35
65013;BME280;51715;39.432;-77.518;2023-04-08T02:03:44;100907.48;;;13.00;27.07
65013;BME280;51715;39.432;-77.518;2023-04-08T02:06:14;100902.60;;;12.78;26.61
65013;BME280;51715;39.432;-77.518;2023-04-08T02:08:42;100896.85;;;13.00;26.07
65013;BME280;51715;39.432;-77.518;2023-04-08T02:11:10;100894.98;;;12.88;26.24
65013;BME280;51715;39.432;-77.518;2023-04-08T02:13:38;100898.97;;;12.75;27.69
65013;BME280;51715;39.432;-77.518;2023-04-08T02:16:14;100906.34;;;12.70;27.39
65013;BME280;51715;39.432;-77.518;2023-04-08T02:18:49;100909.51;;;11.94;28.58
65013;BME280;51715;39.432;-77.518;2023-04-08T02:21:26;100911.21;;;11.93;28.38
65013;BME280;51715;39.432;-77.518;2023-04-08T02:23:59;100911.83;;;11.84;28.17
65013;BME280;51715;39.432;-77.518;2023-04-08T02:26:35;100919.51;;;11.63;28.89
65013;BME280;51715;39.432;-77.518;2023-04-08T02:29:04;100922.52;;;11.85;27.80
65013;BME280;51715;39.432;-77.518;2023-04-08T02:31:34;100926.82;;;12.04;27.84
65013;BME280;51715;39.432;-77.518;2023-04-08T02:34:04;100924.56;;;11.55;29.00
65013;BME280;51715;39.432;-77.518;2023-04-08T02:36:34;100919.75;;;11.68;28.66
65013;BME280;51715;39.432;-77.518;2023-04-08T02:39:03;100917.43;;;11.91;29.58
65013;BME280;51715;39.432;-77.518;2023-04-08T02:41:31;100909.21;;;11.60;28.81
65013;BME280;51715;39.432;-77.518;2023-04-08T02:44:05;100907.16;;;11.48;29.76
65013;BME280;51715;39.432;-77.518;2023-04-08T02:46:34;100906.13;;;11.72;29.23
65013;BME280;51715;39.432;-77.518;2023-04-08T02:49:03;100906.70;;;11.34;29.34
65013;BME280;51715;39.432;-77.518;2023-04-08T02:51:31;100906.48;;;11.60;29.98
65013;BME280;51715;39.432;-77.518;2023-04-08T02:54:00;100902.43;;;11.76;29.22
65013;BME280;51715;39.432;-77.518;2023-04-08T02:56:29;100902.67;;;11.73;28.01
65013;BME280;51715;39.432;-77.518;2023-04-08T02:58:57;100899.62;;;11.78;28.60
65013;BME280;51715;39.432;-77.518;2023-04-08T03:01:26;100896.01;;;11.81;28.93
65013;BME280;51715;39.432;-77.518;2023-04-08T03:03:54;100897.76;;;11.83;29.23
65013;BME280;51715;39.432;-77.518;2023-04-08T03:06:22;100900.44;;;11.92;28.74
65013;BME280;51715;39.432;-77.518;2023-04-08T03:08:51;100903.77;;;11.79;29.63
65013;BME280;51715;39.432;-77.518;2023-04-08T03:11:21;100909.27;;;11.67;29.05
65013;BME280;51715;39.432;-77.518;2023-04-08T03:13:49;100911.03;;;11.40;29.64
65013;BME280;51715;39.432;-77.518;2023-04-08T03:16:17;100909.57;;;11.07;30.96
65013;BME280;51715;39.432;-77.518;2023-04-08T03:18:46;100910.30;;;11.11;30.71
65013;BME280;51715;39.432;-77.518;2023-04-08T03:21:15;100915.28;;;10.91;29.34
65013;BME280;51715;39.432;-77.518;2023-04-08T03:23:44;100919.80;;;11.05;29.54
65013;BME280;51715;39.432;-77.518;2023-04-08T03:26:12;100920.18;;;11.05;30.27
65013;BME280;51715;39.432;-77.518;2023-04-08T03:28:41;100922.32;;;11.27;30.05
65013;BME280;51715;39.432;-77.518;2023-04-08T03:31:10;100918.90;;;10.89;29.69
65013;BME280;51715;39.432;-77.518;2023-04-08T03:33:38;100918.55;;;10.85;30.12
65013;BME280;51715;39.432;-77.518;2023-04-08T03:36:08;100916.26;;;10.89;29.83
65013;BME280;51715;39.432;-77.518;2023-04-08T03:38:36;100909.43;;;11.05;29.60
65013;BME280;51715;39.432;-77.518;2023-04-08T03:41:05;100902.28;;;11.10;29.05
65013;BME280;51715;39.432;-77.518;2023-04-08T03:43:33;100897.13;;;11.27;29.35
65013;BME280;51715;39.432;-77.518;2023-04-08T03:46:02;100891.01;;;11.24;30.14
65013;BME280;51715;39.432;-77.518;2023-04-08T03:48:32;100889.86;;;11.04;30.79
65013;BME280;51715;39.432;-77.518;2023-04-08T03:51:01;100888.56;;;11.10;31.04
65013;BME280;51715;39.432;-77.518;2023-04-08T03:53:29;100894.68;;;11.14;30.34
65013;BME280;51715;39.432;-77.518;2023-04-08T03:55:59;100898.37;;;11.11;30.36
65013;BME280;51715;39.432;-77.518;2023-04-08T03:58:28;100892.99;;;11.25;27.93
65013;BME280;51715;39.432;-77.518;2023-04-08T04:04:01;100887.55;;;11.22;28.13
65013;BME280;51715;39.432;-77.518;2023-04-08T04:06:29;100883.03;;;11.20;26.88
65013;BME280;51715;39.432;-77.518;2023-04-08T04:08:58;100872.14;;;11.54;26.20
65013;BME280;51715;39.432;-77.518;2023-04-08T04:11:27;100873.69;;;11.47;25.29
65013;BME280;51715;39.432;-77.518;2023-04-08T04:13:56;100876.30;;;11.88;24.92
65013;BME280;51715;39.432;-77.518;2023-04-08T04:16:23;100882.75;;;12.11;24.62
65013;BME280;51715;39.432;-77.518;2023-04-08T04:18:52;100889.30;;;11.70;26.09
65013;BME280;51715;39.432;-77.518;2023-04-08T04:21:21;100888.26;;;11.89;27.00
65013;BME280;51715;39.432;-77.518;2023-04-08T04:23:50;100883.68;;;11.55;25.00
65013;BME280;51715;39.432;-77.518;2023-04-08T04:26:18;100881.96;;;11.55;24.12
65013;BME280;51715;39.432;-77.518;2023-04-08T04:28:47;100876.47;;;11.89;22.31
65013;BME280;51715;39.432;-77.518;2023-04-08T04:31:19;100876.90;;;11.73;22.99
65013;BME280;51715;39.432;-77.518;2023-04-08T04:33:48;100875.33;;;11.86;22.85
65013;BME280;51715;39.432;-77.518;2023-04-08T04:36:16;100869.52;;;11.87;22.61
65013;BME280;51715;39.432;-77.518;2023-04-08T04:38:44;100871.84;;;12.03;22.89
65013;BME280;51715;39.432;-77.518;2023-04-08T04:41:13;100868.10;;;11.95;22.87
65013;BME280;51715;39.432;-77.518;2023-04-08T04:43:41;100867.08;;;12.09;22.94
65013;BME280;51715;39.432;-77.518;2023-04-08T04:46:10;100872.48;;;11.35;23.42
65013;BME280;51715;39.432;-77.518;2023-04-08T04:48:38;100873.79;;;11.98;22.96
65013;BME280;51715;39.432;-77.518;2023-04-08T04:51:06;100872.22;;;12.00;22.71
65013;BME280;51715;39.432;-77.518;2023-04-08T04:53:34;100881.66;;;11.81;23.06
65013;BME280;51715;39.432;-77.518;2023-04-08T04:56:03;100890.95;;;11.82;23.13
65013;BME280;51715;39.432;-77.518;2023-04-08T04:58:31;100901.90;;;11.63;24.39
65013;BME280;51715;39.432;-77.518;2023-04-08T05:00:59;100912.70;;;11.72;24.48
65013;BME280;51715;39.432;-77.518;2023-04-08T05:03:27;100923.87;;;11.85;24.68
65013;BME280;51715;39.432;-77.518;2023-04-08T05:05:56;100933.26;;;11.52;22.63
65013;BME280;51715;39.432;-77.518;2023-04-08T05:08:24;100936.32;;;11.44;22.95
65013;BME280;51715;39.432;-77.518;2023-04-08T05:10:52;100941.72;;;11.26;22.81
65013;BME280;51715;39.432;-77.518;2023-04-08T05:13:21;100937.06;;;11.44;22.22
65013;BME280;51715;39.432;-77.518;2023-04-08T05:15:49;100935.10;;;11.44;22.01
65013;BME280;51715;39.432;-77.518;2023-04-08T05:18:16;100934.25;;;11.71;22.29
65013;BME280;51715;39.432;-77.518;2023-04-08T05:20:45;100934.85;;;12.05;22.89
65013;BME280;51715;39.432;-77.518;2023-04-08T05:23:13;100929.41;;;11.65;22.63
65013;BME280;51715;39.432;-77.518;2023-04-08T05:25:41;100925.19;;;11.85;22.43
65013;BME280;51715;39.432;-77.518;2023-04-08T05:28:09;100930.07;;;11.90;22.57
65013;BME280;51715;39.432;-77.518;2023-04-08T05:30:39;100928.05;;;11.69;22.35
65013;BME280;51715;39.432;-77.518;2023-04-08T05:33:07;100929.86;;;11.55;23.95
65013;BME280;51715;39.432;-77.518;2023-04-08T05:35:36;100938.29;;;11.47;24.45
65013;BME280;51715;39.432;-77.518;2023-04-08T05:38:04;100939.31;;;11.38;25.90
65013;BME280;51715;39.432;-77.518;2023-04-08T05:40:32;100944.98;;;10.96;27.24
65013;BME280;51715;39.432;-77.518;2023-04-08T05:43:15;100943.73;;;10.56;25.23
65013;BME280;51715;39.432;-77.518;2023-04-08T05:45:44;100938.58;;;10.65;23.96
65013;BME280;51715;39.432;-77.518;2023-04-08T05:48:13;100945.71;;;10.75;25.83
65013;BME280;51715;39.432;-77.518;2023-04-08T05:50:41;100951.36;;;10.84;25.50
65013;BME280;51715;39.432;-77.518;2023-04-08T05:53:09;100954.75;;;10.90;25.97
65013;BME280;51715;39.432;-77.518;2023-04-08T05:55:37;100958.70;;;10.85;26.53
65013;BME280;51715;39.432;-77.518;2023-04-08T05:58:06;100960.92;;;10.67;25.93
65013;BME280;51715;39.432;-77.518;2023-04-08T06:00:35;100964.63;;;10.66;27.39
65013;BME280;51715;39.432;-77.518;2023-04-08T06:03:02;100959.56;;;10.59;27.36
65013;BME280;51715;39.432;-77.518;2023-04-08T06:05:31;100955.93;;;10.59;26.07
65013;BME280;51715;39.432;-77.518;2023-04-08T06:07:59;100959.04;;;10.56;25.11
65013;BME280;51715;39.432;-77.518;2023-04-08T06:10:29;100957.97;;;10.67;25.76
65013;BME280;51715;39.432;-77.518;2023-04-08T06:12:56;100955.16;;;10.72;25.26
65013;BME280;51715;39.432;-77.518;2023-04-08T06:15:25;100958.96;;;10.66;26.49
65013;BME280;51715;39.432;-77.518;2023-04-08T06:17:54;100962.81;;;10.72;26.86
65013;BME280;51715;39.432;-77.518;2023-04-08T06:20:22;100959.60;;;10.75;25.51
65013;BME280;51715;39.432;-77.518;2023-04-08T06:22:51;100955.42;;;10.67;25.27
65013;BME280;51715;39.432;-77.518;2023-04-08T06:25:19;100952.00;;;10.62;25.73
65013;BME280;51715;39.432;-77.518;2023-04-08T06:27:46;100958.60;;;10.55;26.60
65013;BME280;51715;39.432;-77.518;2023-04-08T06:30:15;100960.84;;;10.36;28.32
65013;BME280;51715;39.432;-77.518;2023-04-08T06:32:43;100965.53;;;9.94;29.74
65013;BME280;51715;39.432;-77.518;2023-04-08T06:35:12;100967.70;;;10.06;30.42
65013;BME280;51715;39.432;-77.518;2023-04-08T06:37:40;100966.49;;;9.88;30.76
65013;BME280;51715;39.432;-77.518;2023-04-08T06:40:09;100964.44;;;9.52;31.08
65013;BME280;51715;39.432;-77.518;2023-04-08T06:42:37;100968.21;;;9.13;29.97
65013;BME280;51715;39.432;-77.518;2023-04-08T06:45:12;100966.04;;;8.88;28.90
65013;BME280;51715;39.432;-77.518;2023-04-08T06:47:40;100963.90;;;9.29;29.69
65013;BME280;51715;39.432;-77.518;2023-04-08T06:50:08;100963.75;;;9.59;27.92
65013;BME280;51715;39.432;-77.518;2023-04-08T06:52:36;100965.37;;;9.59;28.47
65013;BME280;51715;39.432;-77.518;2023-04-08T06:55:10;100962.63;;;9.59;28.50
65013;BME280;51715;39.432;-77.518;2023-04-08T06:57:38;100967.84;;;9.77;29.15
65013;BME280;51715;39.432;-77.518;2023-04-08T07:00:08;100971.09;;;9.82;29.65
65013;BME280;51715;39.432;-77.518;2023-04-08T07:02:36;100970.86;;;9.79;29.42
65013;BME280;51715;39.432;-77.518;2023-04-08T07:05:05;100971.70;;;9.81;29.60
65013;BME280;51715;39.432;-77.518;2023-04-08T07:07:34;100974.47;;;9.92;29.37
65013;BME280;51715;39.432;-77.518;2023-04-08T07:10:02;100975.02;;;9.74;29.69
65013;BME280;51715;39.432;-77.518;2023-04-08T07:12:30;100973.95;;;9.34;27.05
65013;BME280;51715;39.432;-77.518;2023-04-08T07:15:00;100966.63;;;9.55;26.54
65013;BME280;51715;39.432;-77.518;2023-04-08T07:17:28;100963.16;;;9.52;28.63
65013;BME280;51715;39.432;-77.518;2023-04-08T07:19:55;100966.27;;;9.63;28.80
65013;BME280;51715;39.432;-77.518;2023-04-08T07:22:23;100971.96;;;9.55;28.78
65013;BME280;51715;39.432;-77.518;2023-04-08T07:24:51;100969.74;;;9.75;28.41
65013;BME280;51715;39.432;-77.518;2023-04-08T07:27:19;100969.54;;;9.60;27.93
65013;BME280;51715;39.432;-77.518;2023-04-08T07:29:53;100964.86;;;9.78;28.48
65013;BME280;51715;39.432;-77.518;2023-04-08T07:32:21;100969.21;;;9.11;28.17
65013;BME280;51715;39.432;-77.518;2023-04-08T07:34:49;100981.38;;;9.22;28.82
65013;BME280;51715;39.432;-77.518;2023-04-08T07:37:18;100988.02;;;9.15;29.63
65013;BME280;51715;39.432;-77.518;2023-04-08T07:39:46;100982.88;;;8.94;30.26
65013;BME280;51715;39.432;-77.518;2023-04-08T07:42:15;100984.87;;;8.82;29.82
65013;BME280;51715;39.432;-77.518;2023-04-08T07:44:44;100993.42;;;8.83;29.95
65013;BME280;51715;39.432;-77.518;2023-04-08T07:47:12;100993.81;;;8.95;29.15
65013;BME280;51715;39.432;-77.518;2023-04-08T07:49:40;100996.77;;;8.99;29.12
65013;BME280;51715;39.432;-77.518;2023-04-08T07:52:08;101001.27;;;9.21;29.09
65013;BME280;51715;39.432;-77.518;2023-04-08T07:54:36;101008.01;;;9.10;29.19
65013;BME280;51715;39.432;-77.518;2023-04-08T07:57:04;101020.34;;;8.91;29.13
65013;BME280;51715;39.432;-77.518;2023-04-08T07:59:32;101019.63;;;8.80;29.74
65013;BME280;51715;39.432;-77.518;2023-04-08T08:02:00;101020.30;;;8.34;30.43
65013;BME280;51715;39.432;-77.518;2023-04-08T08:04:28;101019.55;;;8.32;29.96
65013;BME280;51715;39.432;-77.518;2023-04-08T08:06:56;101019.73;;;8.54;30.06
65013;BME280;51715;39.432;-77.518;2023-04-08T08:09:24;101023.52;;;8.47;30.08
65013;BME280;51715;39.432;-77.518;2023-04-08T08:11:52;101018.74;;;8.40;29.03
65013;BME280;51715;39.432;-77.518;2023-04-08T08:14:20;101026.47;;;8.44;29.11
65013;BME280;51715;39.432;-77.518;2023-04-08T08:16:49;101030.68;;;8.71;30.72
65013;BME280;51715;39.432;-77.518;2023-04-08T08:19:17;101030.46;;;8.32;30.01
65013;BME280;51715;39.432;-77.518;2023-04-08T08:21:45;101034.45;;;8.14;30.60
65013;BME280;51715;39.432;-77.518;2023-04-08T08:24:13;101041.33;;;8.17;30.92
65013;BME280;51715;39.432;-77.518;2023-04-08T08:26:42;101047.94;;;8.27;31.71
65013;BME280;51715;39.432;-77.518;2023-04-08T08:29:11;101044.37;;;7.81;30.40
65013;BME280;51715;39.432;-77.518;2023-04-08T08:31:38;101043.45;;;7.89;30.70
65013;BME280;51715;39.432;-77.518;2023-04-08T08:34:08;101045.67;;;8.05;30.92
65013;BME280;51715;39.432;-77.518;2023-04-08T08:36:36;101051.49;;;8.31;31.06
65013;BME280;51715;39.432;-77.518;2023-04-08T08:39:05;101054.53;;;8.26;31.07
65013;BME280;51715;39.432;-77.518;2023-04-08T08:41:34;101057.19;;;7.37;31.60
65013;BME280;51715;39.432;-77.518;2023-04-08T08:44:05;101060.52;;;7.36;31.90
65013;BME280;51715;39.432;-77.518;2023-04-08T08:46:34;101065.27;;;6.77;32.86
65013;BME280;51715;39.432;-77.518;2023-04-08T08:49:03;101073.51;;;6.97;32.78
65013;BME280;51715;39.432;-77.518;2023-04-08T08:51:32;101076.11;;;7.14;31.92
65013;BME280;51715;39.432;-77.518;2023-04-08T08:54:02;101074.30;;;7.41;31.37
65013;BME280;51715;39.432;-77.518;2023-04-08T08:56:32;101077.06;;;7.14;31.10
65013;BME280;51715;39.432;-77.518;2023-04-08T08:59:01;101083.44;;;6.99;31.63
65013;BME280;51715;39.432;-77.518;2023-04-08T09:01:32;101097.11;;;6.31;33.80
65013;BME280;51715;39.432;-77.518;2023-04-08T09:04:11;101094.43;;;6.38;33.49
65013;BME280;51715;39.432;-77.518;2023-04-08T09:06:40;101091.68;;;6.30;33.05
65013;BME280;51715;39.432;-77.518;2023-04-08T09:09:08;101090.62;;;6.10;31.42
65013;BME280;51715;39.432;-77.518;2023-04-08T09:11:37;101094.29;;;6.32;32.69
65013;BME280;51715;39.432;-77.518;2023-04-08T09:14:17;101090.53;;;6.44;30.40
65013;BME280;51715;39.432;-77.518;2023-04-08T09:16:45;101100.11;;;6.96;32.17
65013;BME280;51715;39.432;-77.518;2023-04-08T09:19:14;101105.17;;;6.96;31.81
65013;BME280;51715;39.432;-77.518;2023-04-08T09:21:42;101102.92;;;6.59;30.52
65013;BME280;51715;39.432;-77.518;2023-04-08T09:24:27;101103.34;;;7.34;28.81
65013;BME280;51715;39.432;-77.518;2023-04-08T09:26:55;101097.72;;;7.42;28.33
65013;BME280;51715;39.432;-77.518;2023-04-08T09:29:25;101094.41;;;7.32;27.45
65013;BME280;51715;39.432;-77.518;2023-04-08T09:31:54;101094.39;;;7.14;26.89
65013;BME280;51715;39.432;-77.518;2023-04-08T09:34:24;101090.96;;;7.81;27.10
65013;BME280;51715;39.432;-77.518;2023-04-08T09:36:54;101084.39;;;8.11;26.52
65013;BME280;51715;39.432;-77.518;2023-04-08T09:39:22;101086.09;;;7.77;26.22
65013;BME280;51715;39.432;-77.518;2023-04-08T09:41:51;101099.90;;;7.96;26.10
65013;BME280;51715;39.432;-77.518;2023-04-08T09:44:20;101094.90;;;8.29;26.60
65013;BME280;51715;39.432;-77.518;2023-04-08T09:47:03;101092.53;;;7.81;26.48
65013;BME280;51715;39.432;-77.518;2023-04-08T09:49:39;101091.39;;;8.03;26.21
65013;BME280;51715;39.432;-77.518;2023-04-08T09:52:12;101093.12;;;8.19;25.70
65013;BME280;51715;39.432;-77.518;2023-04-08T09:54:47;101103.26;;;8.22;25.32
65013;BME280;51715;39.432;-77.518;2023-04-08T09:57:27;101111.94;;;7.36;25.57
65013;BME280;51715;39.432;-77.518;2023-04-08T09:59:59;101105.96;;;7.71;26.76
65013;BME280;51715;39.432;-77.518;2023-04-08T10:02:31;101101.59;;;7.64;26.55
65013;BME280;51715;39.432;-77.518;2023-04-08T10:05:02;101103.03;;;7.93;24.97
65013;BME280;51715;39.432;-77.518;2023-04-08T10:07:34;101115.66;;;7.65;24.14
65013;BME280;51715;39.432;-77.518;2023-04-08T10:10:04;101113.88;;;7.12;27.09
65013;BME280;51715;39.432;-77.518;2023-04-08T10:12:33;101110.14;;;7.26;27.07
65013;BME280;51715;39.432;-77.518;2023-04-08T10:15:34;101110.94;;;7.47;27.65
65013;BME280;51715;39.432;-77.518;2023-04-08T10:18:42;101108.74;;;7.70;26.56
65013;BME280;51715;39.432;-77.518;2023-04-08T10:21:32;101115.08;;;7.24;27.48
65013;BME280;51715;39.432;-77.518;2023-04-08T10:24:05;101119.80;;;7.20;26.67
65013;BME280;51715;39.432;-77.518;2023-04-08T10:26:37;101126.35;;;6.56;26.51
65013;BME280;51715;39.432;-77.518;2023-04-08T10:29:39;101123.29;;;6.04;27.58
65013;BME280;51715;39.432;-77.518;2023-04-08T10:32:08;101125.95;;;6.40;27.75
65013;BME280;51715;39.432;-77.518;2023-04-08T10:34:54;101123.43;;;6.47;27.40
65013;BME280;51715;39.432;-77.518;2023-04-08T10:37:23;101120.96;;;6.87;26.47
65013;BME280;51715;39.432;-77.518;2023-04-08T10:39:53;101129.42;;;6.97;27.42
65013;BME280;51715;39.432;-77.518;2023-04-08T10:42:27;101128.13;;;6.77;27.36
65013;BME280;51715;39.432;-77.518;2023-04-08T10:45:00;101129.24;;;5.26;28.09
65013;BME280;51715;39.432;-77.518;2023-04-08T10:47:28;101139.46;;;5.43;30.49
65013;BME280;51715;39.432;-77.518;2023-04-08T10:49:57;101144.89;;;5.89;29.19
65013;BME280;51715;39.432;-77.518;2023-04-08T10:52:25;101149.40;;;4.86;29.05
65013;BME280;51715;39.432;-77.518;2023-04-08T10:54:54;101144.70;;;5.53;30.21
65013;BME280;51715;39.432;-77.518;2023-04-08T10:57:25;101142.23;;;5.79;29.08
65013;BME280;51715;39.432;-77.518;2023-04-08T10:59:54;101143.76;;;5.38;29.28
65013;BME280;51715;39.432;-77.518;2023-04-08T11:02:31;101165.18;;;4.54;30.98
65013;BME280;51715;39.432;-77.518;2023-04-08T11:04:58;101158.58;;;5.41;29.01
65013;BME280;51715;39.432;-77.518;2023-04-08T11:07:26;101172.82;;;4.30;30.42
65013;BME280;51715;39.432;-77.518;2023-04-08T11:09:55;101168.26;;;4.74;29.64
65013;BME280;51715;39.432;-77.518;2023-04-08T11:12:23;101184.04;;;5.06;30.09
65013;BME280;51715;39.432;-77.518;2023-04-08T11:14:52;101172.76;;;5.83;27.61
65013;BME280;51715;39.432;-77.518;2023-04-08T11:17:21;101176.36;;;5.56;29.35
65013;BME280;51715;39.432;-77.518;2023-04-08T11:19:50;101180.13;;;5.66;28.28
65013;BME280;51715;39.432;-77.518;2023-04-08T11:22:20;101188.14;;;5.33;29.63
65013;BME280;51715;39.432;-77.518;2023-04-08T11:24:50;101201.71;;;5.34;29.63
65013;BME280;51715;39.432;-77.518;2023-04-08T11:27:18;101204.89;;;5.38;30.80
65013;BME280;51715;39.432;-77.518;2023-04-08T11:29:46;101214.16;;;5.27;31.11
65013;BME280;51715;39.432;-77.518;2023-04-08T11:32:15;101211.35;;;6.27;28.82
65013;BME280;51715;39.432;-77.518;2023-04-08T11:34:43;101217.36;;;4.75;30.39
65013;BME280;51715;39.432;-77.518;2023-04-08T11:37:12;101232.86;;;5.17;29.38
65013;BME280;51715;39.432;-77.518;2023-04-08T11:39:43;101244.76;;;5.31;30.04
65013;BME280;51715;39.432;-77.518;2023-04-08T11:42:26;101242.47;;;6.04;28.44
65013;BME280;51715;39.432;-77.518;2023-04-08T11:44:55;101250.23;;;5.16;29.34
65013;BME280;51715;39.432;-77.518;2023-04-08T11:47:30;101248.08;;;5.34;30.80
65013;BME280;51715;39.432;-77.518;2023-04-08T11:49:58;101245.60;;;4.84;30.32
65013;BME280;51715;39.432;-77.518;2023-04-08T11:52:41;101250.14;;;5.21;30.78
65013;BME280;51715;39.432;-77.518;2023-04-08T11:55:11;101257.19;;;4.81;30.36
65013;BME280;51715;39.432;-77.518;2023-04-08T11:57:40;101264.64;;;4.43;31.97
65013;BME280;51715;39.432;-77.518;2023-04-08T12:00:09;101255.38;;;4.40;31.59
65013;BME280;51715;39.432;-77.518;2023-04-08T12:02:39;101253.86;;;5.20;29.93
65013;BME280;51715;39.432;-77.518;2023-04-08T12:05:08;101260.03;;;6.29;28.65
65013;BME280;51715;39.432;-77.518;2023-04-08T12:07:38;101258.71;;;5.82;28.50
65013;BME280;51715;39.432;-77.518;2023-04-08T12:10:08;101270.40;;;4.20;32.06
65013;BME280;51715;39.432;-77.518;2023-04-08T12:12:36;101262.41;;;5.07;32.92
65013;BME280;51715;39.432;-77.518;2023-04-08T12:15:07;101255.87;;;4.43;31.97
65013;BME280;51715;39.432;-77.518;2023-04-08T12:17:35;101268.86;;;5.18;30.23
65013;BME280;51715;39.432;-77.518;2023-04-08T12:20:04;101277.40;;;4.53;32.56
65013;BME280;51715;39.432;-77.518;2023-04-08T12:22:32;101284.75;;;4.04;32.58
65013;BME280;51715;39.432;-77.518;2023-04-08T12:25:01;101292.24;;;4.67;32.33
65013;BME280;51715;39.432;-77.518;2023-04-08T12:27:30;101303.68;;;4.11;33.15
65013;BME280;51715;39.432;-77.518;2023-04-08T12:29:59;101294.51;;;4.86;32.30
65013;BME280;51715;39.432;-77.518;2023-04-08T12:32:28;101304.46;;;3.90;33.49
65013;BME280;51715;39.432;-77.518;2023-04-08T12:34:56;101300.86;;;5.17;31.17
65013;BME280;51715;39.432;-77.518;2023-04-08T12:37:25;101312.88;;;5.17;31.01
65013;BME280;51715;39.432;-77.518;2023-04-08T12:39:53;101308.56;;;4.25;31.59
65013;BME280;51715;39.432;-77.518;2023-04-08T12:42:22;101316.43;;;4.21;34.56
65013;BME280;51715;39.432;-77.518;2023-04-08T12:44:51;101307.82;;;5.17;32.59
65013;BME280;51715;39.432;-77.518;2023-04-08T12:47:18;101305.44;;;4.84;31.87
65013;BME280;51715;39.432;-77.518;2023-04-08T12:49:46;101316.40;;;4.55;34.24
65013;BME280;51715;39.432;-77.518;2023-04-08T12:52:14;101315.14;;;4.57;33.76